Time;durP1;ratioP1;P1;durP2;ratioP2;P2;SDS_P1;SDS_P2;PMS_P1;PMS_P2;Temp;Humidity;BMP_temperature;BMP_pressure;BME280_temperature;BME280_humidity;BME280_pressure;Samples;Min_cycle;Max_cycle;Signal;HPM_P1;HPM_P2
2021/07/16 00:01:53;;;;;;;;;;;18.50;83.50;;;;;;5094112;28;20402;-36
2021/07/16 00:04:19;;;;;;;;;;;18.40;83.90;;;;;;5094415;28;19994;-36
2021/07/16 00:06:45;;;;;;;;;;;18.50;83.70;;;;;;5094142;28;19911;-36
2021/07/16 00:09:10;;;;;;;;;;;18.50;83.60;;;;;;5094301;28;19904;-36
2021/07/16 00:11:36;;;;;;;;;;;18.50;83.20;;;;;;5094004;28;20374;-36
2021/07/16 00:14:03;;;;;;;;;;;18.50;83.50;;;;;;5093886;28;19904;-36
2021/07/16 00:16:28;;;;;;;;;;;18.50;83.40;;;;;;5093959;28;19908;-36
2021/07/16 00:18:54;;;;;;;;;;;18.40;83.50;;;;;;5075873;28;19958;-36
2021/07/16 00:21:19;;;;;;;;;;;18.40;83.60;;;;;;5075859;28;19919;-37
2021/07/16 00:23:45;;;;;;;;;;;18.40;83.80;;;;;;5093862;28;19911;-36
2021/07/16 00:26:11;;;;;;;;;;;18.40;83.40;;;;;;5094153;28;19904;-37
2021/07/16 00:28:36;;;;;;;;;;;18.50;83.60;;;;;;5076069;28;19904;-36
2021/07/16 00:31:02;;;;;;;;;;;18.50;83.20;;;;;;5093837;28;19915;-36
2021/07/16 00:33:28;;;;;;;;;;;18.30;83.60;;;;;;5093851;28;19953;-36
2021/07/16 00:35:53;;;;;;;;;;;18.40;83.50;;;;;;5094777;28;19919;-36
2021/07/16 00:38:19;;;;;;;;;;;18.30;83.70;;;;;;5098174;28;19904;-36
2021/07/16 00:40:44;;;;;;;;;;;18.30;83.70;;;;;;5080084;28;19904;-36
2021/07/16 00:43:10;;;;;;;;;;;18.40;83.10;;;;;;5097830;28;20299;-36
2021/07/16 00:45:35;;;;;;;;;;;18.30;83.00;;;;;;5097739;28;19908;-36
2021/07/16 00:48:01;;;;;;;;;;;18.30;83.20;;;;;;5098011;28;19908;-36
2021/07/16 00:50:28;;;;;;;;;;;18.40;83.10;;;;;;5097846;28;19908;-36
2021/07/16 00:52:57;;;;;;;;;;;18.30;83.20;;;;;;5097573;28;19904;-36
2021/07/16 00:55:22;;;;;;;;;;;18.30;83.10;;;;;;5097442;28;20011;-36
2021/07/16 00:57:48;;;;;;;;;;;18.30;83.10;;;;;;5097481;28;19947;-36
2021/07/16 01:00:14;;;;;;;;;;;18.30;83.00;;;;;;5097258;28;20017;-36
2021/07/16 01:02:40;;;;;;;;;;;18.20;83.30;;;;;;5097519;28;19927;-36
2021/07/16 01:05:06;;;;;;;;;;;18.20;83.50;;;;;;5097208;28;19904;-36
2021/07/16 01:07:32;;;;;;;;;;;18.20;83.40;;;;;;5097134;28;19907;-36
2021/07/16 01:09:58;;;;;;;;;;;18.20;83.70;;;;;;5097149;28;20310;-36
2021/07/16 01:12:24;;;;;;;;;;;18.20;83.50;;;;;;5097577;28;19911;-36
2021/07/16 01:14:51;;;;;;;;;;;18.20;82.80;;;;;;5096923;28;20390;-36
2021/07/16 01:17:17;;;;;;;;;;;18.20;83.20;;;;;;5097272;28;19904;-36
2021/07/16 01:19:50;;;;;;;;;;;18.10;83.00;;;;;;5097706;28;19908;-38
2021/07/16 01:22:16;;;;;;;;;;;18.10;83.40;;;;;;5096923;28;19911;-37
2021/07/16 01:24:42;;;;;;;;;;;18.10;83.00;;;;;;5096830;28;19904;-36
2021/07/16 01:27:07;;;;;;;;;;;18.20;82.60;;;;;;5078638;28;19904;-36
2021/07/16 01:29:34;;;;;;;;;;;18.20;82.50;;;;;;5097077;28;20357;-37
2021/07/16 01:31:59;;;;;;;;;;;18.10;83.00;;;;;;5096996;28;19904;-36
2021/07/16 01:34:25;;;;;;;;;;;18.10;82.70;;;;;;5096855;28;19930;-36
2021/07/16 01:36:50;;;;;;;;;;;18.20;82.20;;;;;;5097107;28;19911;-36
2021/07/16 01:39:16;;;;;;;;;;;18.30;82.00;;;;;;5078635;28;19907;-36
2021/07/16 01:41:41;;;;;;;;;;;18.20;82.40;;;;;;5078550;28;19910;-36
2021/07/16 01:44:07;;;;;;;;;;;18.10;82.80;;;;;;5078496;28;19992;-36
2021/07/16 01:46:32;;;;;;;;;;;18.20;82.80;;;;;;5096570;28;19943;-37
2021/07/16 01:48:58;;;;;;;;;;;18.20;82.90;;;;;;5096611;28;20267;-36
2021/07/16 01:51:24;;;;;;;;;;;18.20;83.30;;;;;;5096496;28;19904;-39
2021/07/16 01:53:50;;;;;;;;;;;18.20;83.80;;;;;;5096476;28;19954;-36
2021/07/16 01:56:17;;;;;;;;;;;18.10;83.60;;;;;;5096269;28;19964;-36
2021/07/16 01:58:42;;;;;;;;;;;18.10;83.70;;;;;;5096432;28;19985;-36
2021/07/16 02:01:14;;;;;;;;;;;18.20;83.60;;;;;;5096367;28;20351;-36
2021/07/16 02:03:40;;;;;;;;;;;18.10;83.50;;;;;;5078153;28;20370;-36
2021/07/16 02:06:05;;;;;;;;;;;17.90;83.90;;;;;;5096286;28;19904;-37
2021/07/16 02:08:31;;;;;;;;;;;17.90;84.20;;;;;;5096546;28;19957;-36
2021/07/16 02:10:56;;;;;;;;;;;18.00;84.20;;;;;;5096167;28;19990;-36
2021/07/16 02:13:22;;;;;;;;;;;18.00;83.60;;;;;;5096081;28;20042;-36
2021/07/16 02:15:49;;;;;;;;;;;18.00;83.90;;;;;;5096011;28;19969;-36
2021/07/16 02:18:17;;;;;;;;;;;18.00;83.90;;;;;;5095969;28;19911;-36
2021/07/16 02:20:43;;;;;;;;;;;17.90;83.80;;;;;;5096218;28;20267;-36
2021/07/16 02:23:12;;;;;;;;;;;17.90;83.90;;;;;;5095916;28;19904;-36
2021/07/16 02:25:38;;;;;;;;;;;17.80;83.70;;;;;;5096154;28;20339;-36
2021/07/16 02:28:06;;;;;;;;;;;17.80;83.70;;;;;;5077838;28;19911;-36
2021/07/16 02:30:31;;;;;;;;;;;17.70;84.00;;;;;;5095749;28;19983;-36
2021/07/16 02:32:58;;;;;;;;;;;17.70;83.90;;;;;;5095997;28;19904;-36
2021/07/16 02:35:24;;;;;;;;;;;17.80;83.70;;;;;;5095360;28;19963;-36
2021/07/16 02:37:50;;;;;;;;;;;17.70;84.00;;;;;;5077470;28;19911;-37
2021/07/16 02:40:16;;;;;;;;;;;17.80;83.60;;;;;;5095550;28;19994;-36
2021/07/16 02:42:42;;;;;;;;;;;17.70;83.90;;;;;;5095790;28;20275;-36
2021/07/16 02:45:12;;;;;;;;;;;17.70;83.90;;;;;;5077681;28;19904;-36
2021/07/16 02:47:38;;;;;;;;;;;17.70;84.20;;;;;;5095696;28;19911;-36
2021/07/16 02:50:05;;;;;;;;;;;17.70;83.90;;;;;;5095591;28;20276;-36
2021/07/16 02:52:30;;;;;;;;;;;17.70;84.10;;;;;;5095346;28;19904;-36
2021/07/16 02:54:56;;;;;;;;;;;17.70;83.80;;;;;;5095393;28;20358;-36
2021/07/16 02:57:22;;;;;;;;;;;17.60;84.10;;;;;;5095156;28;19904;-36
2021/07/16 02:59:47;;;;;;;;;;;17.60;84.20;;;;;;5094459;28;19904;-36
2021/07/16 03:02:13;;;;;;;;;;;17.60;84.20;;;;;;5095038;28;19914;-36
2021/07/16 03:04:38;;;;;;;;;;;17.60;84.30;;;;;;5095366;28;20270;-36
2021/07/16 03:07:04;;;;;;;;;;;17.60;84.30;;;;;;5095054;28;19930;-36
2021/07/16 03:09:34;;;;;;;;;;;17.60;84.30;;;;;;5094957;28;20267;-36
2021/07/16 03:12:00;;;;;;;;;;;17.50;84.80;;;;;;5095424;28;19904;-36
2021/07/16 03:14:25;;;;;;;;;;;17.60;84.50;;;;;;5095356;28;19930;-36
2021/07/16 03:16:51;;;;;;;;;;;17.70;84.30;;;;;;5094978;28;19904;-36
2021/07/16 03:19:16;;;;;;;;;;;17.70;84.00;;;;;;5094910;28;20276;-36
2021/07/16 03:21:42;;;;;;;;;;;17.60;84.20;;;;;;5094312;28;20220;-36
2021/07/16 03:24:07;;;;;;;;;;;17.70;84.00;;;;;;5094459;28;19904;-36
2021/07/16 03:26:33;;;;;;;;;;;17.50;84.50;;;;;;5094483;28;19929;-36
2021/07/16 03:28:58;;;;;;;;;;;17.50;84.70;;;;;;5094346;28;19910;-36
2021/07/16 03:31:24;;;;;;;;;;;17.50;84.40;;;;;;5094402;28;19904;-36
2021/07/16 03:33:49;;;;;;;;;;;17.60;84.10;;;;;;5076219;28;19949;-36
2021/07/16 03:36:15;;;;;;;;;;;17.60;84.40;;;;;;5094168;28;19916;-35
2021/07/16 03:38:40;;;;;;;;;;;17.70;83.90;;;;;;5094071;28;19904;-36
2021/07/16 03:41:08;;;;;;;;;;;17.60;84.10;;;;;;5094212;28;19946;-38
2021/07/16 03:43:34;;;;;;;;;;;17.50;84.10;;;;;;5094362;28;19911;-37
2021/07/16 03:45:59;;;;;;;;;;;17.50;84.10;;;;;;5094063;28;19911;-35
2021/07/16 03:48:25;;;;;;;;;;;17.50;84.20;;;;;;5093965;28;19904;-35
2021/07/16 03:50:50;;;;;;;;;;;17.40;84.60;;;;;;5094145;28;19942;-36
2021/07/16 03:53:16;;;;;;;;;;;17.40;84.80;;;;;;5094122;28;19950;-36
2021/07/16 03:55:41;;;;;;;;;;;17.40;84.80;;;;;;5094065;28;20352;-37
2021/07/16 03:58:07;;;;;;;;;;;17.60;84.30;;;;;;5093918;28;19904;-37
2021/07/16 04:00:32;;;;;;;;;;;17.60;84.10;;;;;;5093896;28;20417;-36
2021/07/16 04:02:59;;;;;;;;;;;17.60;84.10;;;;;;5094119;28;19957;-37
2021/07/16 04:05:25;;;;;;;;;;;17.50;84.30;;;;;;5093830;28;19904;-38
2021/07/16 04:07:53;;;;;;;;;;;17.50;84.00;;;;;;5093766;28;19915;-37
2021/07/16 04:10:20;;;;;;;;;;;17.50;84.30;;;;;;5093950;28;19955;-36
2021/07/16 04:12:56;;;;;;;;;;;17.50;84.50;;;;;;5093750;28;19911;-36
2021/07/16 04:15:22;;;;;;;;;;;17.40;84.70;;;;;;5094494;28;19908;-36
2021/07/16 04:17:47;;;;;;;;;;;17.50;84.50;;;;;;5075651;28;19944;-37
2021/07/16 04:20:13;;;;;;;;;;;17.50;84.50;;;;;;5093468;28;20355;-37
2021/07/16 04:22:39;;;;;;;;;;;17.60;83.90;;;;;;5093351;28;20034;-37
2021/07/16 04:25:05;;;;;;;;;;;17.50;84.50;;;;;;5093470;28;20031;-37
2021/07/16 04:27:31;;;;;;;;;;;17.50;84.60;;;;;;5093551;28;19908;-36
2021/07/16 04:29:58;;;;;;;;;;;17.50;84.50;;;;;;5093671;28;19904;-36
2021/07/16 04:32:23;;;;;;;;;;;17.70;84.00;;;;;;5093738;28;19915;-37
2021/07/16 04:34:49;;;;;;;;;;;17.50;84.00;;;;;;5093700;28;19998;-37
2021/07/16 04:37:14;;;;;;;;;;;17.50;83.90;;;;;;5094085;28;20008;-37
2021/07/16 04:39:40;;;;;;;;;;;17.50;84.10;;;;;;5093785;28;19907;-37
2021/07/16 04:42:06;;;;;;;;;;;17.50;84.00;;;;;;5075712;28;19910;-37
2021/07/16 04:44:31;;;;;;;;;;;17.40;83.90;;;;;;5075581;28;19915;-37
2021/07/16 04:46:57;;;;;;;;;;;17.40;83.90;;;;;;5093717;28;20404;-37
2021/07/16 04:49:24;;;;;;;;;;;17.30;84.30;;;;;;5093740;28;20034;-37
2021/07/16 04:51:49;;;;;;;;;;;17.30;84.50;;;;;;5093745;28;19904;-44
2021/07/16 04:54:16;;;;;;;;;;;17.40;84.10;;;;;;5093972;28;19904;-37
2021/07/16 04:56:42;;;;;;;;;;;17.40;84.10;;;;;;5093984;28;19904;-37
2021/07/16 04:59:07;;;;;;;;;;;17.30;84.50;;;;;;5093681;28;19908;-37
2021/07/16 05:01:33;;;;;;;;;;;17.40;84.20;;;;;;5093869;28;19911;-37
2021/07/16 05:03:58;;;;;;;;;;;17.40;84.00;;;;;;5093644;28;20290;-37
2021/07/16 05:06:24;;;;;;;;;;;17.30;84.30;;;;;;5093675;28;19911;-37
2021/07/16 05:08:50;;;;;;;;;;;17.30;84.30;;;;;;5075429;28;19951;-37
2021/07/16 05:11:16;;;;;;;;;;;17.30;84.20;;;;;;5093467;28;19904;-37
2021/07/16 05:13:42;;;;;;;;;;;17.40;84.10;;;;;;5093801;28;19904;-37
2021/07/16 05:16:08;;;;;;;;;;;17.60;83.40;;;;;;5093343;28;19915;-37
2021/07/16 05:18:34;;;;;;;;;;;17.50;83.40;;;;;;5093699;28;20292;-37
2021/07/16 05:21:00;;;;;;;;;;;17.70;83.00;;;;;;5075235;28;19904;-37
2021/07/16 05:23:26;;;;;;;;;;;17.70;82.90;;;;;;5097351;28;19904;-37
2021/07/16 05:25:52;;;;;;;;;;;17.60;83.20;;;;;;5096999;28;20045;-37
2021/07/16 05:28:17;;;;;;;;;;;17.70;83.30;;;;;;5096838;28;19946;-37
2021/07/16 05:30:43;;;;;;;;;;;17.70;83.00;;;;;;5096848;28;19915;-37
2021/07/16 05:33:08;;;;;;;;;;;17.80;82.40;;;;;;5096707;28;19951;-37
2021/07/16 05:35:34;;;;;;;;;;;17.90;82.20;;;;;;5096298;28;20343;-38
2021/07/16 05:38:00;;;;;;;;;;;17.80;82.80;;;;;;5097609;28;20063;-37
2021/07/16 05:40:26;;;;;;;;;;;17.90;83.60;;;;;;5096963;28;19904;-37
2021/07/16 05:42:52;;;;;;;;;;;17.80;84.40;;;;;;5096918;28;19904;-37
2021/07/16 05:45:18;;;;;;;;;;;17.80;84.50;;;;;;5096384;28;19904;-37
2021/07/16 05:47:43;;;;;;;;;;;17.80;83.90;;;;;;5096880;28;19911;-37
2021/07/16 05:50:09;;;;;;;;;;;17.90;83.80;;;;;;5097208;28;20340;-37
2021/07/16 05:52:35;;;;;;;;;;;17.90;83.90;;;;;;5096699;28;19904;-37
2021/07/16 05:55:01;;;;;;;;;;;17.80;84.30;;;;;;5078130;28;20315;-37
2021/07/16 05:57:29;;;;;;;;;;;17.70;84.30;;;;;;5096340;28;20351;-37
2021/07/16 05:59:54;;;;;;;;;;;17.40;85.00;;;;;;5096431;28;20289;-37
2021/07/16 06:02:20;;;;;;;;;;;17.50;84.70;;;;;;5096174;28;19911;-37
2021/07/16 06:04:46;;;;;;;;;;;17.50;84.40;;;;;;5096022;28;19934;-37
2021/07/16 06:07:11;;;;;;;;;;;17.40;84.70;;;;;;5078366;28;19904;-38
2021/07/16 06:09:37;;;;;;;;;;;17.50;84.40;;;;;;5096121;28;20307;-37
2021/07/16 06:12:03;;;;;;;;;;;17.30;84.10;;;;;;5077868;28;19908;-37
2021/07/16 06:14:30;;;;;;;;;;;17.40;84.30;;;;;;5095829;28;19908;-38
2021/07/16 06:16:56;;;;;;;;;;;17.40;83.90;;;;;;5095979;28;19994;-37
2021/07/16 06:19:23;;;;;;;;;;;17.40;83.80;;;;;;5077909;28;19911;-37
2021/07/16 06:21:49;;;;;;;;;;;17.40;84.10;;;;;;5077733;28;20019;-37
2021/07/16 06:24:15;;;;;;;;;;;17.50;83.60;;;;;;5095908;28;19958;-37
2021/07/16 06:26:41;;;;;;;;;;;17.50;83.60;;;;;;5095655;28;19908;-37
2021/07/16 06:29:06;;;;;;;;;;;17.50;83.30;;;;;;5096491;28;19904;-37
2021/07/16 06:31:33;;;;;;;;;;;17.50;83.20;;;;;;5095534;28;20386;-37
2021/07/16 06:33:58;;;;;;;;;;;17.50;83.30;;;;;;5095374;28;20007;-37
2021/07/16 06:36:24;;;;;;;;;;;17.50;83.40;;;;;;5095196;28;19916;-37
2021/07/16 06:38:50;;;;;;;;;;;17.50;83.30;;;;;;5095852;28;19904;-37
2021/07/16 06:41:15;;;;;;;;;;;17.50;83.40;;;;;;5095780;28;20378;-37
2021/07/16 06:43:41;;;;;;;;;;;17.40;83.70;;;;;;5076908;28;20388;-35
2021/07/16 06:46:08;;;;;;;;;;;17.50;83.40;;;;;;5095300;28;19923;-37
2021/07/16 06:48:34;;;;;;;;;;;17.70;83.10;;;;;;5094943;28;19997;-35
2021/07/16 06:51:00;;;;;;;;;;;17.80;82.80;;;;;;5095204;28;20275;-36
2021/07/16 06:53:26;;;;;;;;;;;17.90;81.80;;;;;;5094862;28;19910;-36
2021/07/16 06:55:51;;;;;;;;;;;17.80;82.30;;;;;;5095176;28;20348;-36
2021/07/16 06:58:17;;;;;;;;;;;17.90;81.70;;;;;;5094951;28;19911;-36
2021/07/16 07:00:42;;;;;;;;;;;18.20;80.30;;;;;;5095566;28;19915;-36
2021/07/16 07:03:08;;;;;;;;;;;18.20;79.60;;;;;;5094805;28;19904;-36
2021/07/16 07:05:34;;;;;;;;;;;17.80;81.00;;;;;;5094841;28;19904;-36
2021/07/16 07:07:59;;;;;;;;;;;17.80;81.10;;;;;;5094371;28;20310;-36
2021/07/16 07:10:25;;;;;;;;;;;17.90;81.10;;;;;;5095774;28;19904;-36
2021/07/16 07:12:50;;;;;;;;;;;17.90;80.70;;;;;;5094824;28;20255;-37
2021/07/16 07:15:16;;;;;;;;;;;18.00;80.10;;;;;;5094622;28;20240;-36
2021/07/16 07:17:42;;;;;;;;;;;18.00;80.20;;;;;;5093374;28;19904;-37
2021/07/16 07:20:08;;;;;;;;;;;18.00;80.00;;;;;;5074902;28;19904;-36
2021/07/16 07:22:34;;;;;;;;;;;18.10;79.70;;;;;;5093812;28;19994;-36
2021/07/16 07:24:59;;;;;;;;;;;18.10;79.70;;;;;;5094001;28;19963;-36
2021/07/16 07:27:24;;;;;;;;;;;18.00;79.90;;;;;;5093893;28;20300;-37
2021/07/16 07:29:50;;;;;;;;;;;18.10;79.80;;;;;;5094114;28;20249;-36
2021/07/16 07:32:16;;;;;;;;;;;18.20;80.10;;;;;;5094242;28;19904;-36
2021/07/16 07:34:41;;;;;;;;;;;18.30;78.80;;;;;;5093805;28;19946;-36
2021/07/16 07:37:07;;;;;;;;;;;18.30;78.60;;;;;;5094898;28;20279;-36
2021/07/16 07:39:32;;;;;;;;;;;18.30;78.90;;;;;;5075905;28;20243;-41
2021/07/16 07:41:58;;;;;;;;;;;18.60;78.00;;;;;;5076035;28;19954;-36
2021/07/16 07:44:24;;;;;;;;;;;18.80;76.90;;;;;;5094106;28;19936;-38
2021/07/16 07:46:49;;;;;;;;;;;19.00;76.30;;;;;;5093821;28;19929;-37
2021/07/16 07:49:15;;;;;;;;;;;19.00;76.60;;;;;;5094246;28;20340;-36
2021/07/16 07:51:41;;;;;;;;;;;19.10;75.20;;;;;;5075486;28;19904;-37
2021/07/16 07:54:07;;;;;;;;;;;19.00;75.50;;;;;;5075244;28;20260;-36
2021/07/16 07:56:33;;;;;;;;;;;18.90;75.50;;;;;;5093491;28;19938;-37
2021/07/16 07:58:59;;;;;;;;;;;18.90;75.70;;;;;;5093525;28;19904;-37
2021/07/16 08:01:25;;;;;;;;;;;18.70;76.40;;;;;;5093523;28;20321;-36
2021/07/16 08:03:51;;;;;;;;;;;18.80;76.30;;;;;;5093661;28;19965;-37
2021/07/16 08:06:16;;;;;;;;;;;18.80;76.00;;;;;;5093667;28;20361;-37
2021/07/16 08:08:42;;;;;;;;;;;18.90;76.70;;;;;;5094176;28;19910;-37
2021/07/16 08:11:08;;;;;;;;;;;19.10;74.80;;;;;;5093947;28;20032;-37
2021/07/16 08:13:33;;;;;;;;;;;19.20;74.50;;;;;;5093778;28;19966;-37
2021/07/16 08:16:02;;;;;;;;;;;19.10;74.30;;;;;;5093243;28;19960;-36
2021/07/16 08:18:28;;;;;;;;;;;19.10;74.40;;;;;;5093522;28;19904;-39
2021/07/16 08:20:55;;;;;;;;;;;19.20;74.10;;;;;;5093493;28;20000;-37
2021/07/16 08:23:20;;;;;;;;;;;19.30;73.30;;;;;;5094444;28;20359;-37
2021/07/16 08:25:46;;;;;;;;;;;19.00;73.50;;;;;;5094647;28;19904;-38
2021/07/16 08:28:11;;;;;;;;;;;19.00;73.40;;;;;;5094325;28;19904;-37
2021/07/16 08:30:37;;;;;;;;;;;19.20;72.90;;;;;;5094543;28;19911;-37
2021/07/16 08:33:03;;;;;;;;;;;19.50;71.90;;;;;;5094135;28;20332;-37
2021/07/16 08:35:28;;;;;;;;;;;19.60;71.60;;;;;;5093752;28;19970;-37
2021/07/16 08:37:54;;;;;;;;;;;19.60;71.50;;;;;;5094089;28;20370;-37
2021/07/16 08:40:19;;;;;;;;;;;19.50;71.80;;;;;;5093967;28;19908;-38
2021/07/16 08:42:46;;;;;;;;;;;19.50;72.00;;;;;;5094016;28;19904;-36
2021/07/16 08:45:11;;;;;;;;;;;19.60;71.80;;;;;;5093800;28;19904;-36
2021/07/16 08:47:37;;;;;;;;;;;19.80;71.40;;;;;;5094941;28;19954;-36
2021/07/16 08:50:04;;;;;;;;;;;20.00;70.10;;;;;;5093704;28;19908;-38
2021/07/16 08:52:29;;;;;;;;;;;19.90;70.50;;;;;;5094050;28;19904;-36
2021/07/16 08:54:56;;;;;;;;;;;19.80;71.10;;;;;;5075463;28;20348;-36
2021/07/16 08:57:24;;;;;;;;;;;19.20;72.80;;;;;;5077225;28;19904;-36
2021/07/16 08:59:50;;;;;;;;;;;19.20;73.40;;;;;;5079570;28;19904;-36
2021/07/16 09:02:15;;;;;;;;;;;19.10;73.90;;;;;;5097978;28;19904;-37
2021/07/16 09:04:41;;;;;;;;;;;19.10;73.90;;;;;;5097266;28;19950;-39
2021/07/16 09:07:07;;;;;;;;;;;18.90;74.20;;;;;;5079023;28;19969;-36
2021/07/16 09:09:36;;;;;;;;;;;19.10;73.70;;;;;;5097747;28;19990;-38
2021/07/16 09:12:06;;;;;;;;;;;19.10;73.70;;;;;;5097011;28;19987;-37
2021/07/16 09:14:32;;;;;;;;;;;18.90;74.10;;;;;;5096770;28;19908;-37
2021/07/16 09:17:09;;;;;;;;;;;19.20;73.40;;;;;;5096704;28;19953;-36
2021/07/16 09:19:42;;;;;;;;;;;19.40;72.40;;;;;;5096602;28;19904;-35
2021/07/16 09:22:37;;;;;;;;;;;19.70;71.10;;;;;;5078281;28;19908;-36
2021/07/16 09:25:04;;;;;;;;;;;19.50;71.20;;;;;;5075159;28;19915;-37
2021/07/16 09:27:32;;;;;;;;;;;19.50;71.30;;;;;;5096342;28;20228;-37
2021/07/16 09:30:11;;;;;;;;;;;19.50;72.10;;;;;;5096272;28;20315;-37
2021/07/16 09:32:38;;;;;;;;;;;19.90;70.40;;;;;;5096415;28;19930;-37
2021/07/16 09:35:04;;;;;;;;;;;19.60;70.10;;;;;;5077240;28;20299;-37
2021/07/16 09:37:30;;;;;;;;;;;19.60;70.80;;;;;;5077586;28;19908;-38
2021/07/16 09:39:57;;;;;;;;;;;19.80;70.10;;;;;;5095298;28;19904;-37
2021/07/16 09:42:22;;;;;;;;;;;19.80;69.60;;;;;;5096104;28;19904;-37
2021/07/16 09:44:57;;;;;;;;;;;19.40;71.00;;;;;;5096352;28;19904;-37
2021/07/16 09:47:22;;;;;;;;;;;19.40;71.50;;;;;;5096149;28;20358;-37
2021/07/16 09:50:02;;;;;;;;;;;19.80;70.60;;;;;;5095857;28;19911;-38
2021/07/16 09:52:28;;;;;;;;;;;20.30;69.00;;;;;;5096116;28;19934;-37
2021/07/16 09:55:08;;;;;;;;;;;20.40;68.10;;;;;;5095843;28;19907;-36
2021/07/16 09:57:37;;;;;;;;;;;20.50;67.80;;;;;;5095550;28;19977;-36
2021/07/16 10:00:15;;;;;;;;;;;20.10;69.30;;;;;;5095631;28;19908;-36
2021/07/16 10:02:48;;;;;;;;;;;19.80;70.00;;;;;;5095973;28;20321;-37
2021/07/16 10:05:13;;;;;;;;;;;19.80;70.70;;;;;;5077642;28;19984;-37
2021/07/16 10:07:41;;;;;;;;;;;19.90;70.10;;;;;;5095434;28;19991;-37
2021/07/16 10:10:09;;;;;;;;;;;20.10;69.50;;;;;;5095803;28;19994;-37
2021/07/16 10:12:35;;;;;;;;;;;19.90;70.40;;;;;;5077253;28;19998;-38
2021/07/16 10:15:00;;;;;;;;;;;20.30;68.90;;;;;;5095215;28;20206;-38
2021/07/16 10:17:26;;;;;;;;;;;20.70;67.50;;;;;;5095494;28;19987;-38
2021/07/16 10:19:52;;;;;;;;;;;20.80;66.80;;;;;;5095277;28;19904;-38
2021/07/16 10:22:18;;;;;;;;;;;20.70;66.50;;;;;;5095174;28;19903;-38
2021/07/16 10:24:44;;;;;;;;;;;20.70;65.90;;;;;;5095787;28;19912;-38
2021/07/16 10:27:09;;;;;;;;;;;20.80;65.80;;;;;;5077384;28;20253;-38
2021/07/16 10:29:37;;;;;;;;;;;21.10;64.40;;;;;;5095174;28;19904;-38
2021/07/16 10:32:02;;;;;;;;;;;21.30;64.30;;;;;;5094978;28;19943;-37
2021/07/16 10:34:28;;;;;;;;;;;21.50;63.30;;;;;;5096204;28;19904;-36
2021/07/16 10:36:58;;;;;;;;;;;20.70;66.10;;;;;;5095262;28;19954;-37
2021/07/16 10:39:40;;;;;;;;;;;21.00;65.50;;;;;;5095099;28;19904;-36
2021/07/16 10:42:24;;;;;;;;;;;20.90;65.60;;;;;;5094948;28;20336;-38
2021/07/16 10:44:50;;;;;;;;;;;20.90;66.00;;;;;;5095391;28;19939;-37
2021/07/16 10:47:34;;;;;;;;;;;20.80;66.90;;;;;;5094687;28;19904;-37
2021/07/16 10:49:59;;;;;;;;;;;20.30;68.40;;;;;;5095082;28;19958;-37
2021/07/16 10:52:44;;;;;;;;;;;20.20;69.10;;;;;;5094904;28;19904;-37
2021/07/16 10:55:10;;;;;;;;;;;20.30;69.70;;;;;;5094944;28;20270;-37
2021/07/16 10:57:40;;;;;;;;;;;20.30;69.00;;;;;;5094851;28;19910;-37
2021/07/16 11:00:07;;;;;;;;;;;20.20;69.90;;;;;;5094752;28;20319;-36
2021/07/16 11:02:42;;;;;;;;;;;20.40;69.20;;;;;;5076219;28;20054;-36
2021/07/16 11:05:26;;;;;;;;;;;20.80;67.40;;;;;;5094513;28;19927;-37
2021/07/16 11:07:52;;;;;;;;;;;20.70;67.90;;;;;;5094539;28;19904;-37
2021/07/16 11:10:36;;;;;;;;;;;20.80;66.70;;;;;;5094145;28;20392;-36
2021/07/16 11:13:20;;;;;;;;;;;20.80;67.50;;;;;;5094169;28;19969;-37
2021/07/16 11:15:46;;;;;;;;;;;20.40;69.10;;;;;;5094012;28;20365;-36
2021/07/16 11:18:26;;;;;;;;;;;20.80;68.10;;;;;;5093892;28;19907;-37
2021/07/16 11:20:52;;;;;;;;;;;20.80;68.40;;;;;;5074855;28;19911;-37
2021/07/16 11:23:19;;;;;;;;;;;20.40;69.80;;;;;;5093945;28;20371;-37
2021/07/16 11:25:45;;;;;;;;;;;20.60;68.40;;;;;;5094376;28;19911;-37
2021/07/16 11:28:11;;;;;;;;;;;20.70;68.30;;;;;;5076226;28;19904;-35
2021/07/16 11:30:37;;;;;;;;;;;20.80;67.40;;;;;;5094220;28;19962;-36
2021/07/16 11:33:03;;;;;;;;;;;21.40;65.50;;;;;;5094046;28;20359;-36
2021/07/16 11:35:30;;;;;;;;;;;22.00;63.80;;;;;;5094017;28;20006;-36
2021/07/16 11:37:55;;;;;;;;;;;22.10;62.40;;;;;;5094200;28;20366;-36
2021/07/16 11:40:22;;;;;;;;;;;21.80;62.40;;;;;;5094007;28;19904;-36
2021/07/16 11:42:49;;;;;;;;;;;22.40;60.20;;;;;;5094280;28;19904;-36
2021/07/16 11:45:19;;;;;;;;;;;22.40;60.90;;;;;;5094226;28;20045;-36
2021/07/16 11:47:45;;;;;;;;;;;22.60;60.10;;;;;;5093905;28;19987;-36
2021/07/16 11:50:12;;;;;;;;;;;22.40;60.80;;;;;;5094342;28;20312;-36
2021/07/16 11:52:39;;;;;;;;;;;22.60;61.40;;;;;;5094067;28;19998;-36
2021/07/16 11:55:15;;;;;;;;;;;22.80;60.00;;;;;;5075708;28;19915;-37
2021/07/16 11:57:47;;;;;;;;;;;22.80;60.30;;;;;;5093725;28;19915;-38
2021/07/16 12:00:13;;;;;;;;;;;21.80;62.20;;;;;;5094054;28;19949;-36
2021/07/16 12:02:38;;;;;;;;;;;21.90;62.00;;;;;;5093631;28;19994;-37
2021/07/16 12:05:04;;;;;;;;;;;22.00;61.90;;;;;;5074998;28;19912;-36
2021/07/16 12:07:37;;;;;;;;;;;22.00;61.80;;;;;;5093460;28;20378;-36
2021/07/16 12:10:17;;;;;;;;;;;21.80;62.60;;;;;;5093690;28;19908;-36
2021/07/16 12:12:44;;;;;;;;;;;21.30;65.20;;;;;;5093453;28;19958;-36
2021/07/16 12:15:11;;;;;;;;;;;21.10;67.40;;;;;;5075195;28;20012;-36
2021/07/16 12:17:40;;;;;;;;;;;20.80;67.20;;;;;;5093805;28;19904;-36
2021/07/16 12:20:10;;;;;;;;;;;20.50;68.50;;;;;;5093914;28;19904;-39
2021/07/16 12:22:39;;;;;;;;;;;20.90;67.30;;;;;;5093758;28;19971;-37
2021/07/16 12:25:06;;;;;;;;;;;21.00;67.30;;;;;;5094395;28;19904;-38
2021/07/16 12:27:31;;;;;;;;;;;20.60;68.40;;;;;;5093262;28;19951;-38
2021/07/16 12:29:59;;;;;;;;;;;20.70;68.90;;;;;;5093392;28;19947;-38
2021/07/16 12:32:31;;;;;;;;;;;21.20;67.10;;;;;;5095874;28;19951;-36
2021/07/16 12:34:57;;;;;;;;;;;21.20;66.60;;;;;;5097436;28;19941;-37
2021/07/16 12:37:22;;;;;;;;;;;21.20;66.00;;;;;;5097858;28;20343;-37
2021/07/16 12:40:00;;;;;;;;;;;21.30;65.50;;;;;;5098214;28;19908;-37
2021/07/16 12:42:25;;;;;;;;;;;21.30;65.50;;;;;;5097888;28;19911;-37
2021/07/16 12:45:02;;;;;;;;;;;21.30;65.80;;;;;;5097453;28;19904;-38
2021/07/16 12:47:27;;;;;;;;;;;21.50;64.50;;;;;;5098114;28;19953;-37
2021/07/16 12:50:10;;;;;;;;;;;22.20;61.60;;;;;;5097720;28;20314;-38
2021/07/16 12:52:35;;;;;;;;;;;21.80;62.10;;;;;;5079625;28;20001;-37
2021/07/16 12:55:10;;;;;;;;;;;21.90;62.00;;;;;;5079271;28;19912;-38
2021/07/16 12:57:36;;;;;;;;;;;21.70;63.40;;;;;;5078868;28;19987;-36
2021/07/16 13:00:16;;;;;;;;;;;21.60;63.60;;;;;;5097239;28;19946;-37
2021/07/16 13:02:44;;;;;;;;;;;21.40;64.90;;;;;;5097691;28;20415;-38
2021/07/16 13:05:10;;;;;;;;;;;21.70;64.30;;;;;;5079959;28;19911;-38
2021/07/16 13:07:36;;;;;;;;;;;21.50;64.60;;;;;;5097569;28;19907;-37
2021/07/16 13:10:19;;;;;;;;;;;21.60;64.70;;;;;;5097351;28;19904;-37
2021/07/16 13:12:45;;;;;;;;;;;21.70;64.60;;;;;;5097166;28;20376;-38
2021/07/16 13:15:12;;;;;;;;;;;21.50;64.50;;;;;;5078783;28;19987;-37
2021/07/16 13:17:38;;;;;;;;;;;21.50;63.70;;;;;;5096890;28;19919;-41
2021/07/16 13:20:04;;;;;;;;;;;22.00;62.90;;;;;;5097335;28;19908;-38
2021/07/16 13:22:31;;;;;;;;;;;22.90;60.20;;;;;;5097073;28;19930;-37
2021/07/16 13:24:57;;;;;;;;;;;23.40;57.80;;;;;;5096964;28;20386;-37
2021/07/16 13:27:24;;;;;;;;;;;22.80;59.40;;;;;;5079275;28;19946;-39
2021/07/16 13:29:50;;;;;;;;;;;23.00;59.30;;;;;;5097375;28;19910;-38
2021/07/16 13:32:16;;;;;;;;;;;23.00;59.00;;;;;;5096879;28;19907;-39
2021/07/16 13:34:41;;;;;;;;;;;22.60;60.10;;;;;;5096690;28;19990;-38
2021/07/16 13:37:07;;;;;;;;;;;22.60;60.40;;;;;;5096818;28;19908;-37
2021/07/16 13:39:33;;;;;;;;;;;22.30;61.40;;;;;;5078585;28;20018;-37
2021/07/16 13:41:58;;;;;;;;;;;22.00;62.50;;;;;;5096307;28;20370;-37
2021/07/16 13:44:24;;;;;;;;;;;22.00;63.20;;;;;;5095910;28;19904;-38
2021/07/16 13:46:49;;;;;;;;;;;21.90;63.70;;;;;;5096250;28;20393;-37
2021/07/16 13:49:15;;;;;;;;;;;21.90;63.50;;;;;;5096301;28;19910;-37
2021/07/16 13:51:40;;;;;;;;;;;21.60;64.10;;;;;;5095734;28;19958;-38
2021/07/16 13:54:06;;;;;;;;;;;21.70;63.30;;;;;;5077272;28;20315;-37
2021/07/16 13:56:32;;;;;;;;;;;21.40;63.40;;;;;;5095667;28;19914;-37
2021/07/16 13:58:58;;;;;;;;;;;21.30;63.80;;;;;;5077635;28;19982;-42
2021/07/16 14:01:23;;;;;;;;;;;21.30;63.70;;;;;;5095856;28;19908;-37
2021/07/16 14:03:50;;;;;;;;;;;21.30;63.60;;;;;;5096070;28;20279;-37
2021/07/16 14:06:15;;;;;;;;;;;21.40;62.60;;;;;;5077298;28;19911;-37
2021/07/16 14:08:41;;;;;;;;;;;21.70;62.90;;;;;;5077544;28;19904;-37
2021/07/16 14:11:06;;;;;;;;;;;21.80;61.50;;;;;;5096229;28;19950;-37
2021/07/16 14:13:32;;;;;;;;;;;21.40;63.40;;;;;;5096086;28;19904;-37
2021/07/16 14:15:57;;;;;;;;;;;21.80;62.00;;;;;;5077457;28;19908;-38